sensor_id;sensor_type;location;lat;lon;timestamp;temperature;humidity
54960;DHT22;40860;51.710;8.736;2022-08-24T00:01:47;22.60;53.00
54960;DHT22;40860;51.710;8.736;2022-08-24T00:05:50;22.60;53.00
54960;DHT22;40860;51.710;8.736;2022-08-24T00:09:54;22.60;53.00
54960;DHT22;40860;51.710;8.736;2022-08-24T00:13:59;22.60;53.10
54960;DHT22;40860;51.710;8.736;2022-08-24T00:18:02;22.50;53.10
54960;DHT22;40860;51.710;8.736;2022-08-24T00:22:05;22.60;53.00
54960;DHT22;40860;51.710;8.736;2022-08-24T00:26:08;22.60;53.00
54960;DHT22;40860;51.710;8.736;2022-08-24T00:30:17;22.50;53.60
54960;DHT22;40860;51.710;8.736;2022-08-24T00:34:20;22.50;53.20
54960;DHT22;40860;51.710;8.736;2022-08-24T00:38:22;22.50;53.10
54960;DHT22;40860;51.710;8.736;2022-08-24T00:42:30;22.40;53.20
54960;DHT22;40860;51.710;8.736;2022-08-24T00:46:40;22.40;53.30
54960;DHT22;40860;51.710;8.736;2022-08-24T00:50:47;22.40;53.40
54960;DHT22;40860;51.710;8.736;2022-08-24T00:54:53;22.30;53.50
54960;DHT22;40860;51.710;8.736;2022-08-24T00:59:01;22.30;53.60
54960;DHT22;40860;51.710;8.736;2022-08-24T01:03:06;22.20;53.80
54960;DHT22;40860;51.710;8.736;2022-08-24T01:07:09;22.20;54.20
54960;DHT22;40860;51.710;8.736;2022-08-24T01:11:15;22.10;54.20
54960;DHT22;40860;51.710;8.736;2022-08-24T01:15:19;22.00;54.40
54960;DHT22;40860;51.710;8.736;2022-08-24T01:19:32;22.00;54.60
54960;DHT22;40860;51.710;8.736;2022-08-24T01:23:39;21.90;54.80
54960;DHT22;40860;51.710;8.736;2022-08-24T01:27:44;21.90;54.90
54960;DHT22;40860;51.710;8.736;2022-08-24T01:31:50;21.80;54.90
54960;DHT22;40860;51.710;8.736;2022-08-24T01:35:57;21.80;55.10
54960;DHT22;40860;51.710;8.736;2022-08-24T01:40:05;21.70;55.30
54960;DHT22;40860;51.710;8.736;2022-08-24T01:44:09;21.70;55.40
54960;DHT22;40860;51.710;8.736;2022-08-24T01:48:12;21.60;55.60
54960;DHT22;40860;51.710;8.736;2022-08-24T01:52:25;21.60;55.80
54960;DHT22;40860;51.710;8.736;2022-08-24T01:56:50;21.60;55.90
54960;DHT22;40860;51.710;8.736;2022-08-24T02:00:54;21.50;56.00
54960;DHT22;40860;51.710;8.736;2022-08-24T02:04:57;21.50;56.10
54960;DHT22;40860;51.710;8.736;2022-08-24T02:09:00;21.50;56.10
54960;DHT22;40860;51.710;8.736;2022-08-24T02:13:06;21.50;56.10
54960;DHT22;40860;51.710;8.736;2022-08-24T02:17:10;21.50;56.20
54960;DHT22;40860;51.710;8.736;2022-08-24T02:21:13;21.40;56.30
54960;DHT22;40860;51.710;8.736;2022-08-24T02:25:18;21.40;56.30
54960;DHT22;40860;51.710;8.736;2022-08-24T02:29:23;21.40;56.50
54960;DHT22;40860;51.710;8.736;2022-08-24T02:33:26;21.30;56.70
54960;DHT22;40860;51.710;8.736;2022-08-24T02:37:30;21.20;57.40
54960;DHT22;40860;51.710;8.736;2022-08-24T02:41:34;21.00;57.70
54960;DHT22;40860;51.710;8.736;2022-08-24T02:45:41;21.00;57.80
54960;DHT22;40860;51.710;8.736;2022-08-24T02:49:50;20.90;57.90
54960;DHT22;40860;51.710;8.736;2022-08-24T02:53:53;20.90;57.70
54960;DHT22;40860;51.710;8.736;2022-08-24T02:57:57;20.80;58.30
54960;DHT22;40860;51.710;8.736;2022-08-24T03:02:02;20.80;58.70
54960;DHT22;40860;51.710;8.736;2022-08-24T03:06:07;20.70;59.20
54960;DHT22;40860;51.710;8.736;2022-08-24T03:10:10;20.60;59.30
54960;DHT22;40860;51.710;8.736;2022-08-24T03:14:14;20.50;59.60
54960;DHT22;40860;51.710;8.736;2022-08-24T03:18:20;20.40;60.50
54960;DHT22;40860;51.710;8.736;2022-08-24T03:22:26;20.30;60.80
54960;DHT22;40860;51.710;8.736;2022-08-24T03:26:29;20.20;61.60
54960;DHT22;40860;51.710;8.736;2022-08-24T03:30:32;20.10;61.00
54960;DHT22;40860;51.710;8.736;2022-08-24T03:34:36;20.20;61.00
54960;DHT22;40860;51.710;8.736;2022-08-24T03:38:39;20.10;61.40
54960;DHT22;40860;51.710;8.736;2022-08-24T03:42:42;20.10;61.50
54960;DHT22;40860;51.710;8.736;2022-08-24T03:46:46;20.10;61.80
54960;DHT22;40860;51.710;8.736;2022-08-24T03:50:51;20.10;62.10
54960;DHT22;40860;51.710;8.736;2022-08-24T03:54:54;20.00;62.30
54960;DHT22;40860;51.710;8.736;2022-08-24T03:58:58;20.10;62.70
54960;DHT22;40860;51.710;8.736;2022-08-24T04:03:04;20.00;63.20
54960;DHT22;40860;51.710;8.736;2022-08-24T04:07:09;19.90;63.40
54960;DHT22;40860;51.710;8.736;2022-08-24T04:11:15;19.90;63.30
54960;DHT22;40860;51.710;8.736;2022-08-24T04:15:20;19.90;63.60
54960;DHT22;40860;51.710;8.736;2022-08-24T04:19:25;19.90;63.50
54960;DHT22;40860;51.710;8.736;2022-08-24T04:23:32;19.90;63.70
54960;DHT22;40860;51.710;8.736;2022-08-24T04:27:48;20.00;63.70
54960;DHT22;40860;51.710;8.736;2022-08-24T04:31:51;19.90;64.10
54960;DHT22;40860;51.710;8.736;2022-08-24T04:35:55;19.80;64.60
54960;DHT22;40860;51.710;8.736;2022-08-24T04:40:06;19.80;64.70
54960;DHT22;40860;51.710;8.736;2022-08-24T04:44:16;19.80;64.70
54960;DHT22;40860;51.710;8.736;2022-08-24T04:48:20;19.90;64.60
54960;DHT22;40860;51.710;8.736;2022-08-24T04:52:23;19.90;64.60
54960;DHT22;40860;51.710;8.736;2022-08-24T04:56:27;20.00;64.70
54960;DHT22;40860;51.710;8.736;2022-08-24T05:00:31;20.00;65.00
54960;DHT22;40860;51.710;8.736;2022-08-24T05:04:34;20.00;65.20
54960;DHT22;40860;51.710;8.736;2022-08-24T05:08:38;20.00;64.70
54960;DHT22;40860;51.710;8.736;2022-08-24T05:12:42;20.00;65.70
54960;DHT22;40860;51.710;8.736;2022-08-24T05:16:45;20.10;65.10
54960;DHT22;40860;51.710;8.736;2022-08-24T05:20:55;20.20;64.90
54960;DHT22;40860;51.710;8.736;2022-08-24T05:24:58;20.30;64.70
54960;DHT22;40860;51.710;8.736;2022-08-24T05:29:02;20.40;64.70
54960;DHT22;40860;51.710;8.736;2022-08-24T05:33:25;20.70;64.00
54960;DHT22;40860;51.710;8.736;2022-08-24T05:37:27;21.90;62.60
54960;DHT22;40860;51.710;8.736;2022-08-24T05:41:49;23.90;59.80
54960;DHT22;40860;51.710;8.736;2022-08-24T05:45:59;26.00;55.60
54960;DHT22;40860;51.710;8.736;2022-08-24T05:50:03;28.00;51.10
54960;DHT22;40860;51.710;8.736;2022-08-24T05:54:06;27.30;49.10
54960;DHT22;40860;51.710;8.736;2022-08-24T05:58:32;26.20;50.60
54960;DHT22;40860;51.710;8.736;2022-08-24T06:02:38;25.60;51.80
54960;DHT22;40860;51.710;8.736;2022-08-24T06:06:41;25.00;52.40
54960;DHT22;40860;51.710;8.736;2022-08-24T06:10:49;24.80;53.10
54960;DHT22;40860;51.710;8.736;2022-08-24T06:14:52;24.70;53.10
54960;DHT22;40860;51.710;8.736;2022-08-24T06:18:58;25.50;52.60
54960;DHT22;40860;51.710;8.736;2022-08-24T06:23:02;25.90;51.20
54960;DHT22;40860;51.710;8.736;2022-08-24T06:27:12;25.40;51.60
54960;DHT22;40860;51.710;8.736;2022-08-24T06:31:28;24.70;52.50
54960;DHT22;40860;51.710;8.736;2022-08-24T06:35:44;24.30;53.60
54960;DHT22;40860;51.710;8.736;2022-08-24T06:39:48;24.10;54.20
54960;DHT22;40860;51.710;8.736;2022-08-24T06:43:58;24.00;54.70
54960;DHT22;40860;51.710;8.736;2022-08-24T06:48:17;23.90;55.00
54960;DHT22;40860;51.710;8.736;2022-08-24T06:52:22;23.80;55.00
54960;DHT22;40860;51.710;8.736;2022-08-24T06:56:25;23.70;55.40
54960;DHT22;40860;51.710;8.736;2022-08-24T07:00:28;23.60;55.80
54960;DHT22;40860;51.710;8.736;2022-08-24T07:04:32;23.70;56.30
54960;DHT22;40860;51.710;8.736;2022-08-24T07:08:55;23.80;55.90
54960;DHT22;40860;51.710;8.736;2022-08-24T07:13:00;24.00;55.80
54960;DHT22;40860;51.710;8.736;2022-08-24T07:17:04;24.80;55.00
54960;DHT22;40860;51.710;8.736;2022-08-24T07:21:07;25.80;53.20
54960;DHT22;40860;51.710;8.736;2022-08-24T07:25:21;25.60;52.80
54960;DHT22;40860;51.710;8.736;2022-08-24T07:29:26;25.30;52.80
54960;DHT22;40860;51.710;8.736;2022-08-24T07:33:50;25.10;53.40
54960;DHT22;40860;51.710;8.736;2022-08-24T07:37:53;25.10;53.60
54960;DHT22;40860;51.710;8.736;2022-08-24T07:41:58;25.10;53.30
54960;DHT22;40860;51.710;8.736;2022-08-24T07:46:21;25.10;53.60
54960;DHT22;40860;51.710;8.736;2022-08-24T07:50:26;25.10;54.00
54960;DHT22;40860;51.710;8.736;2022-08-24T07:54:30;25.40;53.80
54960;DHT22;40860;51.710;8.736;2022-08-24T07:58:36;25.50;53.50
54960;DHT22;40860;51.710;8.736;2022-08-24T08:02:39;25.90;52.90
54960;DHT22;40860;51.710;8.736;2022-08-24T08:06:44;26.40;51.80
54960;DHT22;40860;51.710;8.736;2022-08-24T08:10:47;26.80;51.20
54960;DHT22;40860;51.710;8.736;2022-08-24T08:14:51;27.20;50.80
54960;DHT22;40860;51.710;8.736;2022-08-24T08:18:54;27.80;50.20
54960;DHT22;40860;51.710;8.736;2022-08-24T08:23:16;28.30;49.00
54960;DHT22;40860;51.710;8.736;2022-08-24T08:27:41;28.70;47.50
54960;DHT22;40860;51.710;8.736;2022-08-24T08:31:46;29.10;45.70
54960;DHT22;40860;51.710;8.736;2022-08-24T08:35:50;29.40;45.10
54960;DHT22;40860;51.710;8.736;2022-08-24T08:39:55;29.70;44.20
54960;DHT22;40860;51.710;8.736;2022-08-24T08:44:02;30.00;44.10
54960;DHT22;40860;51.710;8.736;2022-08-24T08:48:31;30.00;43.50
54960;DHT22;40860;51.710;8.736;2022-08-24T08:57:29;30.00;43.70
54960;DHT22;40860;51.710;8.736;2022-08-24T09:01:42;30.70;43.20
54960;DHT22;40860;51.710;8.736;2022-08-24T09:06:16;31.20;41.90
54960;DHT22;40860;51.710;8.736;2022-08-24T09:10:35;31.20;41.40
54960;DHT22;40860;51.710;8.736;2022-08-24T09:15:09;31.10;40.70
54960;DHT22;40860;51.710;8.736;2022-08-24T09:19:35;30.90;41.60
54960;DHT22;40860;51.710;8.736;2022-08-24T09:23:51;31.00;40.80
54960;DHT22;40860;51.710;8.736;2022-08-24T09:28:11;31.30;41.90
54960;DHT22;40860;51.710;8.736;2022-08-24T09:32:35;31.60;41.10
54960;DHT22;40860;51.710;8.736;2022-08-24T09:36:51;31.70;40.80
54960;DHT22;40860;51.710;8.736;2022-08-24T09:41:12;32.00;40.50
54960;DHT22;40860;51.710;8.736;2022-08-24T09:45:40;32.10;40.60
54960;DHT22;40860;51.710;8.736;2022-08-24T09:59:45;32.90;39.50
54960;DHT22;40860;51.710;8.736;2022-08-24T10:04:02;32.70;39.00
54960;DHT22;40860;51.710;8.736;2022-08-24T10:08:14;32.80;39.50
54960;DHT22;40860;51.710;8.736;2022-08-24T10:12:32;32.90;38.90
54960;DHT22;40860;51.710;8.736;2022-08-24T10:16:43;33.10;38.10
54960;DHT22;40860;51.710;8.736;2022-08-24T10:21:08;33.20;39.10
54960;DHT22;40860;51.710;8.736;2022-08-24T10:25:28;33.40;38.10
54960;DHT22;40860;51.710;8.736;2022-08-24T10:29:59;33.20;38.60
54960;DHT22;40860;51.710;8.736;2022-08-24T10:34:22;33.20;39.20
54960;DHT22;40860;51.710;8.736;2022-08-24T10:38:33;33.30;38.70
54960;DHT22;40860;51.710;8.736;2022-08-24T10:47:51;32.70;38.70
54960;DHT22;40860;51.710;8.736;2022-08-24T10:52:15;33.00;38.30
54960;DHT22;40860;51.710;8.736;2022-08-24T10:56:30;33.10;37.80
54960;DHT22;40860;51.710;8.736;2022-08-24T11:00:37;33.10;37.60
54960;DHT22;40860;51.710;8.736;2022-08-24T11:04:41;33.10;37.20
54960;DHT22;40860;51.710;8.736;2022-08-24T11:08:57;32.60;36.80
54960;DHT22;40860;51.710;8.736;2022-08-24T11:13:14;32.30;37.20
54960;DHT22;40860;51.710;8.736;2022-08-24T11:17:22;32.20;37.70
54960;DHT22;40860;51.710;8.736;2022-08-24T11:21:47;32.30;38.20
54960;DHT22;40860;51.710;8.736;2022-08-24T11:25:54;32.30;39.10
54960;DHT22;40860;51.710;8.736;2022-08-24T11:30:02;32.50;38.00
54960;DHT22;40860;51.710;8.736;2022-08-24T11:34:08;32.50;38.70
54960;DHT22;40860;51.710;8.736;2022-08-24T11:38:17;32.70;38.00
54960;DHT22;40860;51.710;8.736;2022-08-24T11:42:32;32.80;37.90
54960;DHT22;40860;51.710;8.736;2022-08-24T11:46:51;32.90;37.30
54960;DHT22;40860;51.710;8.736;2022-08-24T11:50:58;33.00;37.00
54960;DHT22;40860;51.710;8.736;2022-08-24T11:55:06;33.10;37.30
54960;DHT22;40860;51.710;8.736;2022-08-24T11:59:16;32.80;36.40
54960;DHT22;40860;51.710;8.736;2022-08-24T12:03:37;32.70;37.20
54960;DHT22;40860;51.710;8.736;2022-08-24T12:07:57;33.00;36.70
54960;DHT22;40860;51.710;8.736;2022-08-24T12:12:10;33.20;36.60
54960;DHT22;40860;51.710;8.736;2022-08-24T12:16:20;33.30;36.50
54960;DHT22;40860;51.710;8.736;2022-08-24T12:20:31;33.30;36.70
54960;DHT22;40860;51.710;8.736;2022-08-24T12:24:38;33.00;36.20
54960;DHT22;40860;51.710;8.736;2022-08-24T12:28:47;32.90;36.50
54960;DHT22;40860;51.710;8.736;2022-08-24T12:32:59;32.50;36.20
54960;DHT22;40860;51.710;8.736;2022-08-24T12:37:07;32.30;37.60
54960;DHT22;40860;51.710;8.736;2022-08-24T12:41:26;32.30;37.40
54960;DHT22;40860;51.710;8.736;2022-08-24T12:45:30;32.30;37.20
54960;DHT22;40860;51.710;8.736;2022-08-24T12:49:42;32.50;36.80
54960;DHT22;40860;51.710;8.736;2022-08-24T12:53:57;32.40;36.60
54960;DHT22;40860;51.710;8.736;2022-08-24T12:58:07;32.30;36.80
54960;DHT22;40860;51.710;8.736;2022-08-24T13:02:35;32.50;36.10
54960;DHT22;40860;51.710;8.736;2022-08-24T13:06:57;32.10;35.70
54960;DHT22;40860;51.710;8.736;2022-08-24T13:11:03;31.90;35.90
54960;DHT22;40860;51.710;8.736;2022-08-24T13:15:54;31.70;36.10
54960;DHT22;40860;51.710;8.736;2022-08-24T13:20:17;31.60;36.10
54960;DHT22;40860;51.710;8.736;2022-08-24T13:24:59;31.50;36.70
54960;DHT22;40860;51.710;8.736;2022-08-24T13:29:02;31.40;36.70
54960;DHT22;40860;51.710;8.736;2022-08-24T13:33:09;31.40;36.50
54960;DHT22;40860;51.710;8.736;2022-08-24T13:37:16;31.40;36.70
54960;DHT22;40860;51.710;8.736;2022-08-24T13:41:39;31.40;37.00
54960;DHT22;40860;51.710;8.736;2022-08-24T13:45:48;31.60;37.80
54960;DHT22;40860;51.710;8.736;2022-08-24T13:49:59;31.80;37.60
54960;DHT22;40860;51.710;8.736;2022-08-24T13:54:18;32.10;37.50
54960;DHT22;40860;51.710;8.736;2022-08-24T13:58:38;32.40;36.80
54960;DHT22;40860;51.710;8.736;2022-08-24T14:02:57;32.50;37.00
54960;DHT22;40860;51.710;8.736;2022-08-24T14:07:11;32.60;36.50
54960;DHT22;40860;51.710;8.736;2022-08-24T14:15:48;33.10;35.90
54960;DHT22;40860;51.710;8.736;2022-08-24T14:20:31;33.30;35.20
54960;DHT22;40860;51.710;8.736;2022-08-24T14:24:38;33.60;35.50
54960;DHT22;40860;51.710;8.736;2022-08-24T14:28:47;33.90;34.90
54960;DHT22;40860;51.710;8.736;2022-08-24T14:33:08;34.00;34.40
54960;DHT22;40860;51.710;8.736;2022-08-24T14:37:19;34.40;33.80
54960;DHT22;40860;51.710;8.736;2022-08-24T14:41:49;34.40;33.10
54960;DHT22;40860;51.710;8.736;2022-08-24T14:45:57;34.30;32.80
54960;DHT22;40860;51.710;8.736;2022-08-24T14:50:11;33.90;33.80
54960;DHT22;40860;51.710;8.736;2022-08-24T14:54:25;33.50;33.70
54960;DHT22;40860;51.710;8.736;2022-08-24T14:58:41;33.30;34.30
54960;DHT22;40860;51.710;8.736;2022-08-24T15:03:07;34.10;34.60
54960;DHT22;40860;51.710;8.736;2022-08-24T15:07:29;35.20;33.80
54960;DHT22;40860;51.710;8.736;2022-08-24T15:11:36;35.30;32.50
54960;DHT22;40860;51.710;8.736;2022-08-24T15:15:44;36.00;32.70
54960;DHT22;40860;51.710;8.736;2022-08-24T15:19:54;36.00;32.40
54960;DHT22;40860;51.710;8.736;2022-08-24T15:24:10;36.20;31.10
54960;DHT22;40860;51.710;8.736;2022-08-24T15:28:22;36.10;31.90
54960;DHT22;40860;51.710;8.736;2022-08-24T15:32:39;36.30;31.50
54960;DHT22;40860;51.710;8.736;2022-08-24T15:36:57;36.10;31.30
54960;DHT22;40860;51.710;8.736;2022-08-24T15:41:07;35.30;32.20
54960;DHT22;40860;51.710;8.736;2022-08-24T15:45:12;35.50;32.60
54960;DHT22;40860;51.710;8.736;2022-08-24T15:49:18;36.00;32.80
54960;DHT22;40860;51.710;8.736;2022-08-24T15:53:28;36.10;31.50
54960;DHT22;40860;51.710;8.736;2022-08-24T15:57:36;36.10;32.10
54960;DHT22;40860;51.710;8.736;2022-08-24T16:01:42;36.30;32.10
54960;DHT22;40860;51.710;8.736;2022-08-24T16:06:21;36.60;31.70
54960;DHT22;40860;51.710;8.736;2022-08-24T16:10:30;36.90;32.00
54960;DHT22;40860;51.710;8.736;2022-08-24T16:14:37;36.80;31.70
54960;DHT22;40860;51.710;8.736;2022-08-24T16:18:50;36.40;31.10
54960;DHT22;40860;51.710;8.736;2022-08-24T16:22:56;36.30;32.00
54960;DHT22;40860;51.710;8.736;2022-08-24T16:27:04;36.60;31.80
54960;DHT22;40860;51.710;8.736;2022-08-24T16:31:09;36.60;31.10
54960;DHT22;40860;51.710;8.736;2022-08-24T16:35:15;36.40;31.40
54960;DHT22;40860;51.710;8.736;2022-08-24T16:39:18;36.40;31.10
54960;DHT22;40860;51.710;8.736;2022-08-24T16:43:21;35.90;31.30
54960;DHT22;40860;51.710;8.736;2022-08-24T16:47:26;35.50;31.60
54960;DHT22;40860;51.710;8.736;2022-08-24T16:51:29;35.00;32.60
54960;DHT22;40860;51.710;8.736;2022-08-24T16:55:32;34.20;33.50
54960;DHT22;40860;51.710;8.736;2022-08-24T16:59:35;33.60;34.20
54960;DHT22;40860;51.710;8.736;2022-08-24T17:03:40;33.10;34.80
54960;DHT22;40860;51.710;8.736;2022-08-24T17:07:43;32.80;35.40
54960;DHT22;40860;51.710;8.736;2022-08-24T17:11:47;32.60;35.60
54960;DHT22;40860;51.710;8.736;2022-08-24T17:15:50;32.30;36.00
54960;DHT22;40860;51.710;8.736;2022-08-24T17:19:55;32.20;36.10
54960;DHT22;40860;51.710;8.736;2022-08-24T17:24:00;31.90;36.60
54960;DHT22;40860;51.710;8.736;2022-08-24T17:28:03;31.60;36.60
54960;DHT22;40860;51.710;8.736;2022-08-24T17:32:06;31.50;37.00
54960;DHT22;40860;51.710;8.736;2022-08-24T17:36:10;31.30;37.30
54960;DHT22;40860;51.710;8.736;2022-08-24T17:40:18;31.00;37.70
54960;DHT22;40860;51.710;8.736;2022-08-24T17:44:25;30.80;37.80
54960;DHT22;40860;51.710;8.736;2022-08-24T17:48:28;30.80;38.40
54960;DHT22;40860;51.710;8.736;2022-08-24T17:52:36;30.70;38.80
54960;DHT22;40860;51.710;8.736;2022-08-24T17:56:39;30.60;39.10
54960;DHT22;40860;51.710;8.736;2022-08-24T18:00:42;30.40;39.00
54960;DHT22;40860;51.710;8.736;2022-08-24T18:04:46;30.10;39.20
54960;DHT22;40860;51.710;8.736;2022-08-24T18:08:53;30.00;39.90
54960;DHT22;40860;51.710;8.736;2022-08-24T18:12:57;29.80;39.70
54960;DHT22;40860;51.710;8.736;2022-08-24T18:17:04;29.60;39.90
54960;DHT22;40860;51.710;8.736;2022-08-24T18:21:08;29.40;40.10
54960;DHT22;40860;51.710;8.736;2022-08-24T18:25:14;29.30;40.50
54960;DHT22;40860;51.710;8.736;2022-08-24T18:29:19;29.10;40.80
54960;DHT22;40860;51.710;8.736;2022-08-24T18:33:22;28.90;41.10
54960;DHT22;40860;51.710;8.736;2022-08-24T18:37:25;28.80;41.40
54960;DHT22;40860;51.710;8.736;2022-08-24T18:41:32;28.60;41.80
54960;DHT22;40860;51.710;8.736;2022-08-24T18:45:37;28.40;42.10
54960;DHT22;40860;51.710;8.736;2022-08-24T18:49:40;28.20;42.50
54960;DHT22;40860;51.710;8.736;2022-08-24T18:53:44;28.00;42.70
54960;DHT22;40860;51.710;8.736;2022-08-24T18:57:49;27.80;42.90
54960;DHT22;40860;51.710;8.736;2022-08-24T19:01:53;27.70;43.20
54960;DHT22;40860;51.710;8.736;2022-08-24T19:06:13;27.50;43.30
54960;DHT22;40860;51.710;8.736;2022-08-24T19:10:18;27.40;43.30
54960;DHT22;40860;51.710;8.736;2022-08-24T19:14:23;27.20;43.20
54960;DHT22;40860;51.710;8.736;2022-08-24T19:18:29;27.10;43.40
54960;DHT22;40860;51.710;8.736;2022-08-24T19:22:32;27.00;43.30
54960;DHT22;40860;51.710;8.736;2022-08-24T19:26:37;26.90;43.40
54960;DHT22;40860;51.710;8.736;2022-08-24T19:30:45;26.80;43.50
54960;DHT22;40860;51.710;8.736;2022-08-24T19:34:50;26.70;43.60
54960;DHT22;40860;51.710;8.736;2022-08-24T19:39:01;26.60;43.60
54960;DHT22;40860;51.710;8.736;2022-08-24T19:43:06;26.50;43.70
54960;DHT22;40860;51.710;8.736;2022-08-24T19:47:11;26.40;43.50
54960;DHT22;40860;51.710;8.736;2022-08-24T19:51:14;26.40;43.50
54960;DHT22;40860;51.710;8.736;2022-08-24T19:55:19;26.30;43.60
54960;DHT22;40860;51.710;8.736;2022-08-24T19:59:25;26.20;44.20
54960;DHT22;40860;51.710;8.736;2022-08-24T20:03:29;26.10;43.70
54960;DHT22;40860;51.710;8.736;2022-08-24T20:07:33;26.00;43.70
54960;DHT22;40860;51.710;8.736;2022-08-24T20:11:36;25.90;43.80
54960;DHT22;40860;51.710;8.736;2022-08-24T20:15:40;25.80;44.10
54960;DHT22;40860;51.710;8.736;2022-08-24T20:19:44;25.70;44.00
54960;DHT22;40860;51.710;8.736;2022-08-24T20:23:47;25.70;44.00
54960;DHT22;40860;51.710;8.736;2022-08-24T20:27:50;25.60;44.00
54960;DHT22;40860;51.710;8.736;2022-08-24T20:32:15;25.60;43.90
54960;DHT22;40860;51.710;8.736;2022-08-24T20:36:23;25.50;43.90
54960;DHT22;40860;51.710;8.736;2022-08-24T20:40:29;25.50;44.00
54960;DHT22;40860;51.710;8.736;2022-08-24T20:44:33;25.50;44.10
54960;DHT22;40860;51.710;8.736;2022-08-24T20:48:36;25.40;44.20
54960;DHT22;40860;51.710;8.736;2022-08-24T20:52:45;25.30;44.50
54960;DHT22;40860;51.710;8.736;2022-08-24T20:56:48;25.20;44.70
54960;DHT22;40860;51.710;8.736;2022-08-24T21:00:51;25.20;45.00
54960;DHT22;40860;51.710;8.736;2022-08-24T21:04:54;25.10;45.20
54960;DHT22;40860;51.710;8.736;2022-08-24T21:08:59;25.10;45.30
54960;DHT22;40860;51.710;8.736;2022-08-24T21:13:01;25.00;45.50
54960;DHT22;40860;51.710;8.736;2022-08-24T21:17:06;25.00;45.70
54960;DHT22;40860;51.710;8.736;2022-08-24T21:21:08;24.90;45.80
54960;DHT22;40860;51.710;8.736;2022-08-24T21:25:18;24.80;46.00
54960;DHT22;40860;51.710;8.736;2022-08-24T21:29:28;24.80;46.30
54960;DHT22;40860;51.710;8.736;2022-08-24T21:33:31;24.70;46.50
54960;DHT22;40860;51.710;8.736;2022-08-24T21:37:55;24.60;46.80
54960;DHT22;40860;51.710;8.736;2022-08-24T21:42:00;24.50;47.30
54960;DHT22;40860;51.710;8.736;2022-08-24T21:46:04;24.40;47.40
54960;DHT22;40860;51.710;8.736;2022-08-24T21:50:08;24.30;47.90
54960;DHT22;40860;51.710;8.736;2022-08-24T21:54:11;24.20;48.40
54960;DHT22;40860;51.710;8.736;2022-08-24T21:58:15;24.10;48.70
54960;DHT22;40860;51.710;8.736;2022-08-24T22:02:18;24.00;49.00
54960;DHT22;40860;51.710;8.736;2022-08-24T22:06:21;24.00;49.30
54960;DHT22;40860;51.710;8.736;2022-08-24T22:10:31;23.90;49.40
54960;DHT22;40860;51.710;8.736;2022-08-24T22:14:35;23.90;49.50
54960;DHT22;40860;51.710;8.736;2022-08-24T22:18:38;23.90;49.60
54960;DHT22;40860;51.710;8.736;2022-08-24T22:22:42;23.90;49.80
54960;DHT22;40860;51.710;8.736;2022-08-24T22:26:45;23.90;49.90
54960;DHT22;40860;51.710;8.736;2022-08-24T22:30:50;23.80;50.10
54960;DHT22;40860;51.710;8.736;2022-08-24T22:34:53;23.70;50.40
54960;DHT22;40860;51.710;8.736;2022-08-24T22:38:57;23.60;50.70
54960;DHT22;40860;51.710;8.736;2022-08-24T22:43:00;23.60;50.90
54960;DHT22;40860;51.710;8.736;2022-08-24T22:47:05;23.50;51.10
54960;DHT22;40860;51.710;8.736;2022-08-24T22:51:16;23.50;51.20
54960;DHT22;40860;51.710;8.736;2022-08-24T22:55:19;23.50;51.60
54960;DHT22;40860;51.710;8.736;2022-08-24T22:59:27;23.40;51.80
54960;DHT22;40860;51.710;8.736;2022-08-24T23:03:31;23.40;51.90
54960;DHT22;40860;51.710;8.736;2022-08-24T23:07:34;23.30;52.20
54960;DHT22;40860;51.710;8.736;2022-08-24T23:11:38;23.20;52.60
54960;DHT22;40860;51.710;8.736;2022-08-24T23:15:40;23.00;53.10
54960;DHT22;40860;51.710;8.736;2022-08-24T23:19:45;22.90;54.00
54960;DHT22;40860;51.710;8.736;2022-08-24T23:24:08;22.70;54.00
54960;DHT22;40860;51.710;8.736;2022-08-24T23:28:11;22.60;54.30
54960;DHT22;40860;51.710;8.736;2022-08-24T23:32:15;22.50;54.40
54960;DHT22;40860;51.710;8.736;2022-08-24T23:36:21;22.50;54.60
54960;DHT22;40860;51.710;8.736;2022-08-24T23:40:24;22.50;54.40
54960;DHT22;40860;51.710;8.736;2022-08-24T23:44:28;22.50;54.70
54960;DHT22;40860;51.710;8.736;2022-08-24T23:48:32;22.50;54.70
54960;DHT22;40860;51.710;8.736;2022-08-24T23:52:36;22.50;54.60
54960;DHT22;40860;51.710;8.736;2022-08-24T23:56:41;22.50;55.00
